Data for 05/16/2006

Time Sea-Level Adjusted Pressure Absolute Pressure Temperature Relative Humidity Dew Point   
(mb) (inHg) (mb) (inHg) (C) (F) (%) (C) (F)
00:05 1024 30.24 853 25.19 17.5 63.5 33 1.1 34
00:10 1024 30.24 853 25.19 17.5 63.5 33 1.1 34
00:15 1024 30.24 853 25.19 17.5 63.4 33 1.1 34
00:20 1024 30.24 853 25.19 17.3 63.2 33 1 33.7
00:25 1024 30.24 853 25.19 17.3 63.1 33 1 33.8
00:30 1024 30.24 853 25.19 17.2 63 33 1 33.8
00:35 1024 30.24 853 25.19 17.1 62.8 33 1 33.7
00:40 1024 30.24 853 25.19 17 62.7 33 0.9 33.7
00:45 1024 30.24 853 25.19 16.9 62.4 34 0.9 33.7
00:50 1024 30.24 853 25.19 16.7 62.1 34 0.9 33.6
00:55 1024 30.24 853 25.19 16.6 61.9 34 0.7 33.3
01:00 1024 30.24 853 25.19 16.7 62.1 34 0.7 33.2
01:05 1024 30.24 853 25.19 16.7 62.1 33 0.6 33.1
01:10 1024 30.24 853 25.19 16.6 62 34 0.6 33.2
01:15 1024 30.24 853 25.19 16.6 61.8 34 0.6 33.1
01:20 1024 30.24 853 25.19 16.4 61.6 34 0.7 33.2
01:25 1024 30.24 853 25.19 16.4 61.6 34 0.6 33.1
01:30 1024 30.24 853 25.19 16.5 61.6 34 0.6 33
01:35 1024 30.24 853 25.19 16.4 61.5 34 0.6 33.1
01:40 1024 30.24 853 25.19 16.3 61.3 35 0.7 33.3
01:45 1024 30.24 853 25.19 16.1 61 35 0.7 33.2
01:50 1024 30.24 853 25.19 16.1 61.1 34 0.5 33
01:55 1024 30.24 853 25.19 16.2 61.2 34 0.6 33
02:00 1024 30.24 853 25.19 16.1 61 35 0.6 33.1
02:05 1024 30.24 853 25.19 16 60.8 35 0.6 33.1
02:10 1024 30.24 853 25.19 15.8 60.5 35 0.6 33
02:15 1024 30.24 853 25.19 15.8 60.4 35 0.5 32.9
02:20 1024 30.24 853 25.19 15.6 60.1 36 0.7 33.2
02:25 1024 30.24 853 25.19 15.5 59.8 36 0.6 33.1
02:30 1024 30.24 853 25.19 15.3 59.6 37 1 33.7
02:35 1024 30.24 853 25.19 15 58.9 38 1 33.8
02:40 1024 30.24 853 25.19 14.8 58.6 39 0.9 33.6
02:45 1024 30.24 853 25.19 14.7 58.4 39 0.9 33.6
02:50 1024 30.24 853 25.19 14.6 58.2 39 1 33.8
02:55 1024 30.24 853 25.19 14.6 58.2 39 0.9 33.7
03:00 1024 30.24 853 25.19 14.6 58.2 40 1 33.8
03:05 1024 30.24 853 25.19 14.4 58 42 1.7 35
03:10 1024 30.24 853 25.19 14.3 57.7 42 1.5 34.7
03:15 1024 30.24 853 25.19 13.7 56.7 43 1.5 34.6
03:20 1024 30.24 853 25.19 13.4 56.2 44 1.4 34.5
03:25 1024 30.24 853 25.19 13.3 55.9 44 1.4 34.6
03:30 1024 30.24 853 25.19 13.2 55.8 44 1.4 34.6
03:35 1024 30.24 853 25.19 13.4 56.2 43 1.2 34.2
03:40 1024 30.24 853 25.19 13.4 56 45 1.6 34.9
03:45 1024 30.24 853 25.19 13.3 55.9 43 1.1 34
03:50 1024 30.24 853 25.19 13.4 56 43 1.2 34.1
03:55 1024 30.24 853 25.19 13.2 55.7 46 1.8 35.2
04:00 1024 30.24 853 25.19 12.7 54.9 46 1.6 34.8
04:05 1024 30.24 853 25.19 12.8 55 45 1.1 34
04:10 1024 30.24 853 25.19 13.2 55.8 44 1.3 34.3
04:15 1024 30.24 853 25.19 13.2 55.7 44 1.2 34.1
04:20 1024 30.24 853 25.19 13.2 55.8 44 1.3 34.4
04:25 1024 30.24 853 25.19 13.1 55.5 44 1.2 34.1
04:30 1024 30.24 853 25.19 13.3 55.9 44 1.2 34.2
04:35 1024 30.24 853 25.19 13.2 55.8 44 1.3 34.4
04:40 1024 30.24 853 25.19 13.1 55.6 44 1.1 34
04:45 1024 30.24 853 25.19 12.9 55.3 45 1.3 34.4
04:50 1024 30.24 853 25.19 12.5 54.5 47 1.4 34.6
04:55 1024 30.24 853 25.19 12.1 53.9 47 1.3 34.3
05:00 1024 30.24 853 25.19 12.1 53.7 47 1.1 34
05:05 1024 30.24 853 25.19 12.2 54 46 0.9 33.7
05:10 1024 30.24 854 25.22 12.5 54.5 45 0.9 33.7
05:15 1024 30.24 853 25.19 12.4 54.4 45 1 33.8
05:20 1024 30.24 853 25.19 12.1 53.9 47 1.3 34.3
05:25 1024 30.24 854 25.22 11.8 53.3 46 0.8 33.4
05:30 1024 30.24 854 25.22 12.2 54 44 0.4 32.7
05:35 1024 30.24 854 25.22 12.9 55.2 42 0.5 32.9
05:40 1024 30.24 854 25.22 13.1 55.5 43 0.9 33.6
05:45 1024 30.24 854 25.22 12.7 54.8 44 0.7 33.2
05:50 1024 30.24 854 25.22 12.3 54.2 44 0.6 33
05:55 1024 30.24 854 25.22 12.3 54.1 44 0.4 32.7
06:00 1024 30.24 854 25.22 12.7 54.8 43 0.5 33
06:05 1024 30.24 854 25.22 12.4 54.3 43 0.3 32.5
06:10 1024 30.24 854 25.22 11.8 53.3 46 0.6 33.1
06:15 1025 30.27 854 25.22 11.9 53.4 44 0.2 32.3
06:20 1025 30.27 854 25.22 12.1 53.8 45 0.5 32.8
06:25 1025 30.27 854 25.22 12.4 54.2 44 0.4 32.7
06:30 1025 30.27 854 25.22 12.3 54.1 45 0.8 33.5
06:35 1025 30.27 854 25.22 11.8 53.3 46 0.6 33
06:40 1025 30.27 854 25.22 11.9 53.3 46 0.7 33.3
06:45 1025 30.27 854 25.22 11.8 53.3 45 0.4 32.7
06:50 1025 30.27 854 25.22 11.7 53.1 46 0.5 32.9
06:55 1025 30.27 854 25.22 11.7 53.1 45 0.3 32.5
07:00 1025 30.27 854 25.22 12 53.5 45 0.4 32.6
07:05 1025 30.27 854 25.22 12.4 54.3 44 0.6 33.1
07:10 1025 30.27 854 25.22 12.7 54.8 44 1 33.7
07:15 1025 30.27 854 25.22 12.7 54.9 45 1.2 34.1
07:20 1025 30.27 854 25.22 12.8 55.1 45 1.3 34.4
07:25 1025 30.27 854 25.22 12.9 55.1 48 2 35.7
07:30 1025 30.27 854 25.22 12.8 55 48 2 35.7
07:35 1025 30.27 854 25.22 13.1 55.6 47 2.2 35.9
07:40 1025 30.27 854 25.22 13.4 56.1 46 2 35.5
07:45 1025 30.27 854 25.22 14.1 57.3 43 1.9 35.5
07:50 1025 30.27 854 25.22 14.5 58.2 42 2 35.6
07:55 1025 30.27 854 25.22 15 59 42 2.2 35.9
08:00 1025 30.27 854 25.22 15.1 59.2 43 2.6 36.6
08:05 1025 30.27 854 25.22 15.5 59.9 41 2.3 36.2
08:10 1025 30.27 854 25.22 16.1 61 38 2.1 35.7
08:15 1025 30.27 854 25.22 16.3 61.3 38 2.1 35.8
08:20 1025 30.27 854 25.22 16.8 62.3 37 2.1 35.7
08:25 1025 30.27 854 25.22 17.6 63.7 34 1.7 35
08:30 1025 30.27 854 25.22 18 64.3 33 1.6 34.9
08:35 1025 30.27 854 25.22 18 64.4 33 1.6 34.8
08:40 1025 30.27 854 25.22 18.3 64.9 31 0.9 33.6
08:45 1025 30.27 854 25.22 18.7 65.6 31 1.2 34.2
08:50 1025 30.27 854 25.22 19.1 66.3 30 1.1 34
08:55 1025 30.27 854 25.22 19 66.3 30 1.1 34
09:00 1025 30.27 854 25.22 19.5 67.2 29 0.9 33.7
09:05 1025 30.27 854 25.22 20.3 68.5 28 1.5 34.7
09:10 1025 30.27 854 25.22 19.8 67.7 30 2.1 35.8
09:15 1025 30.27 854 25.22 20.1 68.2 31 2.5 36.5
09:20 1025 30.27 854 25.22 20.4 68.7 30 2.6 36.7
09:25 1025 30.27 854 25.22 20.7 69.3 29 2.3 36.2
09:30 1025 30.27 854 25.22 20.8 69.5 29 2.4 36.4
09:35 1025 30.27 854 25.22 20.8 69.4 28 1.8 35.3
09:40 1025 30.27 854 25.22 20.9 69.6 27 1.5 34.6
09:45 1025 30.27 854 25.22 21.4 70.5 26 1.2 34.1
09:50 1025 30.27 854 25.22 21.5 70.8 27 1.8 35.3
09:55 1025 30.27 854 25.22 21.7 71 27 2.2 36
10:00 1025 30.27 854 25.22 21.5 70.7 28 2.3 36.1
10:05 1025 30.27 854 25.22 21.6 70.9 25 1.1 33.9
10:10 1025 30.27 854 25.22 21.9 71.4 26 1.6 34.9
10:15 1025 30.27 854 25.22 22.2 71.9 26 1.9 35.5
10:20 1025 30.27 854 25.22 21.8 71.2 27 2 35.6
10:25 1025 30.27 854 25.22 21.5 70.6 27 1.9 35.4
10:30 1025 30.27 854 25.22 21.6 70.9 27 1.9 35.3
10:35 1025 30.27 854 25.22 21.7 71 25 1.2 34.2
10:40 1025 30.27 854 25.22 22.6 72.6 25 2 35.6
10:45 1025 30.27 854 25.22 23 73.4 26 2.7 36.8
10:50 1025 30.27 854 25.22 22.4 72.3 27 2.7 36.8
10:55 1025 30.27 854 25.22 23.2 73.7 25 2.2 36
11:00 1025 30.27 854 25.22 23.1 73.7 25 2.4 36.3
11:05 1025 30.27 854 25.22 23.5 74.3 24 2.1 35.7
11:10 1025 30.27 854 25.22 23.8 74.8 25 2.6 36.7
11:15 1025 30.27 854 25.22 24.1 75.3 24 2.5 36.5
11:20 1025 30.27 854 25.22 24.3 75.8 25 3.3 37.9
11:25 1025 30.27 854 25.22 24.5 76.1 24 2.9 37.3
11:30 1025 30.27 854 25.22 24.3 75.8 23 2 35.6
11:35 1025 30.27 854 25.22 24.4 75.8 22 1.5 34.7
11:40 1025 30.27 854 25.22 25.3 77.6 22 2.5 36.6
11:45 1025 30.27 854 25.22 24.2 75.6 24 2.7 36.8
11:50 1025 30.27 854 25.22 24.7 76.5 23 2.7 36.9
11:55 1025 30.27 854 25.22 25 77 23 2.7 36.9
12:00 1025 30.27 854 25.22 25 77.1 22 2 35.7
12:05 1025 30.27 854 25.22 25.2 77.4 21 1.9 35.4
12:10 1025 30.27 854 25.22 25.6 78.1 20 1.5 34.7
12:15 1025 30.27 854 25.22 25.4 77.8 22 2.6 36.7
12:20 1025 30.27 854 25.22 25.8 78.4 20 1.7 35
12:25 1024 30.24 854 25.22 25.5 77.9 22 2.2 35.9
12:30 1024 30.24 854 25.22 25.8 78.4 21 1.9 35.3
12:35 1024 30.24 854 25.22 25.7 78.3 22 2.7 36.8
12:40 1024 30.24 853 25.19 26.4 79.5 20 2.2 36
12:45 1024 30.24 853 25.19 26.5 79.6 20 1.8 35.3
12:50 1024 30.24 853 25.19 26.3 79.4 21 2.4 36.2
12:55 1024 30.24 853 25.19 26.3 79.4 20 1.8 35.3
13:00 1024 30.24 853 25.19 26.2 79.2 20 2 35.7
13:05 1024 30.24 853 25.19 25.9 78.7 21 2 35.5
13:10 1024 30.24 853 25.19 26.3 79.3 20 1.9 35.4
13:15 1024 30.24 853 25.19 26.6 79.9 18 0.7 33.3
13:20 1024 30.24 853 25.19 26.9 80.4 19 1.5 34.6
13:25 1024 30.24 853 25.19 27.1 80.8 18 1.3 34.3
13:30 1024 30.24 853 25.19 26.8 80.2 20 1.9 35.5
13:35 1024 30.24 853 25.19 27.1 80.7 17 0.6 33
13:40 1024 30.24 853 25.19 27.5 81.6 16 -0.2 31.6
13:45 1024 30.24 853 25.19 27.6 81.6 17 0.5 32.8
13:50 1024 30.24 853 25.19 27.4 81.3 18 1 33.8
13:55 1024 30.24 853 25.19 27.7 81.8 16 -0.4 31.3
14:00 1024 30.24 853 25.19 27.5 81.5 15 -0.8 30.5
14:05 1024 30.24 853 25.19 27.9 82.3 14 -1.7 29
14:10 1024 30.24 853 25.19 28.2 82.8 14 -1.4 29.5
14:15 1024 30.24 853 25.19 27.6 81.8 15 -1.3 29.7
14:20 1024 30.24 853 25.19 28 82.3 15 -0.5 31.1
14:25 1023 30.21 853 25.19 28.8 83.9 14 -1 30.1
14:30 1023 30.21 853 25.19 28.1 82.6 15 -0.3 31.5
14:35 1023 30.21 853 25.19 28.4 83.1 14 -1.5 29.4
14:40 1023 30.21 853 25.19 28.3 82.9 14 -1.5 29.3
14:45 1023 30.21 853 25.19 28.5 83.3 14 -1.2 29.9
14:50 1023 30.21 853 25.19 28.7 83.7 13 -1.8 28.8
14:55 1023 30.21 853 25.19 28.9 84.1 13 -2.3 27.8
15:00 1023 30.21 853 25.19 29.2 84.6 13 -2.1 28.2
15:05 1023 30.21 852 25.16 28.9 84 13 -1.6 29.2
15:10 1023 30.21 852 25.16 28.9 84.1 13 -1.8 28.8
15:15 1023 30.21 852 25.16 29.1 84.4 13 -2 28.4
15:20 1023 30.21 852 25.16 29.5 85 13 -2 28.4
15:25 1023 30.21 852 25.16 29.6 85.2 12 -2 28.5
15:30 1023 30.21 852 25.16 29.4 84.9 13 -1.2 29.8
15:35 1023 30.21 852 25.16 29.6 85.3 12 -2.1 28.3
15:40 1023 30.21 852 25.16 29.4 84.9 12 -2.2 28.1
15:45 1023 30.21 852 25.16 29.6 85.2 13 -1.2 29.9
15:50 1023 30.21 852 25.16 29.8 85.6 12 -1.8 28.7
15:55 1023 30.21 852 25.16 29.5 85.2 13 -1.8 28.8
16:00 1023 30.21 852 25.16 28.7 83.7 14 -1.2 29.9
16:05 1023 30.21 852 25.16 28.7 83.6 13 -1.7 28.9
16:10 1023 30.21 852 25.16 28.8 83.9 13 -1.5 29.3
16:15 1023 30.21 852 25.16 29 84.2 14 -1 30.1
16:20 1022 30.18 852 25.16 29.2 84.5 13 -1.3 29.7
16:25 1022 30.18 852 25.16 29.3 84.8 13 -1.6 29.1
16:30 1022 30.18 852 25.16 28.7 83.7 14 -1.4 29.5
16:35 1022 30.18 852 25.16 27.7 81.8 14 -1.6 29.1
16:40 1022 30.18 852 25.16 27.5 81.4 15 -1.4 29.4
16:45 1022 30.18 852 25.16 27.7 81.9 14 -2.2 28
16:50 1022 30.18 852 25.16 27.6 81.7 14 -1.8 28.7
16:55 1022 30.18 851 25.13 27.5 81.5 14 -1.7 29
17:00 1022 30.18 851 25.13 27.6 81.6 14 -1.9 28.5
17:05 1022 30.18 851 25.13 27 80.5 14 -2.4 27.7
17:10 1022 30.18 851 25.13 27.3 81.1 15 -1.8 28.8
17:15 1022 30.18 851 25.13 28.1 82.6 14 -1.8 28.8
17:20 1022 30.18 851 25.13 28.6 83.4 15 -0.6 30.9
17:25 1022 30.18 851 25.13 28.7 83.7 14 -1.4 29.5
17:30 1022 30.18 851 25.13 28.5 83.3 14 -0.9 30.5
17:35 1022 30.18 851 25.13 28.2 82.7 14 -1.2 29.8
17:40 1022 30.18 851 25.13 28.2 82.7 14 -1.6 29.2
17:45 1022 30.18 851 25.13 28 82.5 14 -1.5 29.2
17:50 1022 30.18 851 25.13 27.5 81.4 14 -1.8 28.8
17:55 1022 30.18 851 25.13 27.2 81 14 -2 28.4
18:00 1022 30.18 851 25.13 26.9 80.4 14 -2.1 28.2
18:05 1022 30.18 851 25.13 26.9 80.4 14 -2.1 28.2
18:10 1022 30.18 851 25.13 27.2 80.9 14 -2.2 28.1
18:15 1022 30.18 851 25.13 27.5 81.5 14 -2.3 27.8
18:20 1022 30.18 851 25.13 27.7 81.8 14 -2 28.4
18:25 1022 30.18 851 25.13 27.8 82.1 14 -1.9 28.6
18:30 1022 30.18 851 25.13 28.2 82.8 14 -1.5 29.4
18:35 1022 30.18 851 25.13 28.7 83.7 13 -2.3 27.8
18:40 1022 30.18 851 25.13 29 84.2 12 -2.6 27.3
18:45 1022 30.18 851 25.13 29.2 84.5 12 -2.4 27.7
18:50 1022 30.18 851 25.13 29 84.2 12 -3.2 26.3
18:55 1022 30.18 851 25.13 28.5 83.4 12 -3 26.6
19:00 1022 30.18 851 25.13 28.2 82.8 13 -2.5 27.6
19:05 1022 30.18 851 25.13 28.4 83.1 13 -2.3 27.9
19:10 1021 30.15 851 25.13 28.3 82.9 14 -1.9 28.5
19:15 1021 30.15 851 25.13 28 82.4 13 -2.3 27.9
19:20 1021 30.15 851 25.13 27.6 81.6 15 -1.4 29.6
19:25 1022 30.18 851 25.13 26.9 80.4 15 -2.1 28.3
19:30 1022 30.18 851 25.13 26.8 80.2 15 -2.1 28.2
19:35 1022 30.18 851 25.13 26.7 80.1 16 -1.1 30
19:40 1022 30.18 851 25.13 26.6 79.8 17 -0 32
19:45 1022 30.18 851 25.13 26.4 79.4 16 -1.5 29.3
19:50 1022 30.18 851 25.13 26.1 78.9 18 0.3 32.6
19:55 1022 30.18 851 25.13 25.9 78.6 20 1.2 34.1
20:00 1022 30.18 851 25.13 25.6 78.1 21 1.9 35.4
20:05 1022 30.18 851 25.13 25.5 77.8 21 1.9 35.5
20:10 1022 30.18 851 25.13 25.3 77.5 21 1.4 34.4
20:15 1022 30.18 851 25.13 25.1 77.1 22 2.4 36.3
20:20 1022 30.18 851 25.13 24.6 76.3 22 1.9 35.4
20:25 1022 30.18 851 25.13 24.2 75.6 24 2.3 36.2
20:30 1022 30.18 851 25.13 23.7 74.7 25 2.5 36.5
20:35 1022 30.18 851 25.13 23 73.4 28 3.8 38.8
20:40 1022 30.18 851 25.13 22.4 72.3 28 3.4 38.2
20:45 1022 30.18 851 25.13 22.1 71.7 29 3.5 38.4
20:50 1022 30.18 851 25.13 22 71.6 28 2.6 36.8
20:55 1022 30.18 851 25.13 21.8 71.3 28 2.9 37.2
21:00 1022 30.18 851 25.13 21.9 71.4 28 2.6 36.7
21:05 1022 30.18 851 25.13 21.9 71.5 28 2.9 37.3
21:10 1022 30.18 852 25.16 21.3 70.3 30 3.3 38
21:15 1022 30.18 852 25.16 20.5 68.8 33 3.7 38.7
21:20 1022 30.18 852 25.16 19.7 67.4 35 4.1 39.3
21:25 1022 30.18 852 25.16 19.6 67.2 34 3.4 38.1
21:30 1022 30.18 852 25.16 19.4 66.8 35 3.7 38.7
21:35 1022 30.18 852 25.16 18.9 66 38 4.3 39.7
21:40 1023 30.21 852 25.16 18.8 65.8 35 3 37.4
21:45 1023 30.21 852 25.16 19.4 66.8 33 2.7 36.9
21:50 1023 30.21 852 25.16 20 67.9 30 2 35.7
21:55 1023 30.21 852 25.16 20.6 69.1 29 1.9 35.5
22:00 1023 30.21 852 25.16 21 69.7 28 1.8 35.2
22:05 1023 30.21 852 25.16 21.2 70.2 27 1.7 35.1
22:10 1023 30.21 852 25.16 21.2 70.2 29 2.5 36.5
22:15 1023 30.21 852 25.16 20.9 69.6 29 2.3 36.2
22:20 1023 30.21 852 25.16 20.7 69.3 29 2.1 35.7
22:25 1023 30.21 852 25.16 20.6 69.1 30 2.6 36.6
22:30 1023 30.21 852 25.16 20.4 68.6 29 1.9 35.5
22:35 1023 30.21 852 25.16 20.6 69.1 28 1.9 35.3
22:40 1023 30.21 852 25.16 21.1 70 27 1.7 35.1
22:45 1023 30.21 852 25.16 21.3 70.3 27 1.5 34.7
22:50 1022 30.18 852 25.16 21.2 70.1 29 2.5 36.5
22:55 1022 30.18 852 25.16 20.9 69.7 32 3.7 38.6
23:00 1022 30.18 852 25.16 20.7 69.3 31 3.1 37.5
23:05 1022 30.18 852 25.16 20 67.9 34 3.8 38.8
23:10 1022 30.18 852 25.16 19.2 66.6 33 2.8 37
23:15 1022 30.18 852 25.16 19.3 66.7 36 4 39.2
23:20 1022 30.18 852 25.16 18.1 64.6 36 2.8 37.1
23:25 1022 30.18 852 25.16 17.9 64.3 42 5 40.9
23:30 1022 30.18 852 25.16 18 64.4 36 2.7 36.8
23:35 1022 30.18 852 25.16 17.8 64 38 3.4 38
23:40 1022 30.18 851 25.13 17.4 63.3 38 3.2 37.7
23:45 1022 30.18 851 25.13 17.3 63.2 39 3.2 37.8
23:50 1022 30.18 851 25.13 17.2 63 38 2.9 37.2
23:55 1022 30.18 851 25.13 17.1 62.8 39 3 37.5
24:00 1022 30.18 851 25.13 17 62.5 37 2.5 36.5